Time;durP1;ratioP1;P1;durP2;ratioP2;P2;SDS_P1;SDS_P2;PMS_P1;PMS_P2;Temp;Humidity;BMP_temperature;BMP_pressure;BME280_temperature;BME280_humidity;BME280_pressure;Samples;Min_cycle;Max_cycle;Signal;HPM_P1;HPM_P2
2021/11/18 00:01:47;;;;;;;17.80;10.07;;;5.80;81.60;;;;;;5029454;28;20017;-62
2021/11/18 00:04:13;;;;;;;15.90;10.30;;;5.80;81.80;;;;;;5018274;28;20088;-62
2021/11/18 00:06:41;;;;;;;19.77;10.48;;;5.80;81.90;;;;;;5025844;28;20029;-62
2021/11/18 00:09:09;;;;;;;31.02;11.30;;;5.80;81.90;;;;;;5027077;28;20025;-62
2021/11/18 00:11:36;;;;;;;24.25;10.55;;;5.80;81.80;;;;;;5024299;28;20053;-62
2021/11/18 00:14:02;;;;;;;29.70;11.32;;;5.80;81.90;;;;;;5023950;28;20057;-62
2021/11/18 00:16:28;;;;;;;27.95;11.35;;;5.90;81.90;;;;;;5030461;28;20017;-62
2021/11/18 00:18:54;;;;;;;36.17;11.57;;;5.90;82.00;;;;;;5026276;28;20099;-62
2021/11/18 00:21:29;;;;;;;52.47;13.25;;;5.90;82.10;;;;;;5023731;28;20030;-62
2021/11/18 00:23:57;;;;;;;44.17;11.80;;;5.90;82.20;;;;;;5019854;28;20038;-62
2021/11/18 00:26:24;;;;;;;53.75;11.10;;;5.90;82.20;;;;;;5024762;28;20045;-62
2021/11/18 00:28:50;;;;;;;64.50;11.95;;;5.90;82.20;;;;;;5030460;28;20018;-62
2021/11/18 00:31:20;;;;;;;36.83;12.13;;;5.90;82.10;;;;;;5026491;28;20048;-62
2021/11/18 00:33:46;;;;;;;61.40;13.07;;;5.90;82.20;;;;;;5017784;28;20026;-62
2021/11/18 00:36:14;;;;;;;45.55;10.85;;;5.80;82.00;;;;;;5025947;28;20037;-62
2021/11/18 00:38:41;;;;;;;33.42;9.95;;;5.90;82.10;;;;;;5018325;28;20064;-62
2021/11/18 00:41:07;;;;;;;26.10;9.18;;;5.80;82.10;;;;;;5029702;28;20021;-62
2021/11/18 00:43:33;;;;;;;28.52;8.57;;;5.80;82.10;;;;;;5028725;28;20385;-62
2021/11/18 00:45:59;;;;;;;25.05;8.57;;;5.80;82.00;;;;;;5024648;28;20037;-62
2021/11/18 00:48:25;;;;;;;32.35;8.77;;;5.80;82.00;;;;;;5024713;28;20044;-62
2021/11/18 00:51:18;;;;;;;30.65;8.82;;;5.70;82.00;;;;;;5021685;28;20082;-62
2021/11/18 00:53:48;;;;;;;25.60;8.30;;;5.70;82.00;;;;;;5016152;28;20116;-62
2021/11/18 00:56:15;;;;;;;31.73;8.68;;;5.60;81.90;;;;;;5020904;28;20113;-62
2021/11/18 00:58:41;;;;;;;28.08;9.32;;;5.60;81.70;;;;;;5028918;28;20542;-62
2021/11/18 01:01:07;;;;;;;73.05;9.35;;;5.60;81.80;;;;;;5026462;28;20037;-62
2021/11/18 01:03:34;;;;;;;47.20;9.07;;;5.50;81.90;;;;;;5025359;28;20025;-62
2021/11/18 01:06:00;;;;;;;70.13;9.40;;;5.50;82.00;;;;;;5026419;28;20021;-62
2021/11/18 01:08:26;;;;;;;48.75;9.60;;;5.50;82.10;;;;;;5030006;28;20036;-62
2021/11/18 01:10:55;;;;;;;38.45;9.43;;;5.50;82.10;;;;;;5026119;28;20037;-62
2021/11/18 01:13:22;;;;;;;38.67;9.18;;;5.40;82.10;;;;;;5025456;28;20033;-62
2021/11/18 01:15:49;;;;;;;30.08;8.88;;;5.40;82.20;;;;;;5024715;28;20056;-62
2021/11/18 01:18:15;;;;;;;41.60;8.95;;;5.40;82.20;;;;;;5026541;28;20070;-62
2021/11/18 01:20:42;;;;;;;26.95;7.70;;;5.30;82.20;;;;;;5028815;28;20072;-62
2021/11/18 01:23:13;;;;;;;21.98;7.80;;;5.30;82.10;;;;;;5025070;28;20049;-62
2021/11/18 01:25:39;;;;;;;29.13;8.05;;;5.30;82.00;;;;;;5029850;28;20021;-62
2021/11/18 01:28:07;;;;;;;16.15;8.77;;;5.20;81.80;;;;;;5026752;28;20040;-62
2021/11/18 01:30:34;;;;;;;19.80;9.25;;;5.20;82.00;;;;;;5021160;28;20033;-62
2021/11/18 01:33:02;;;;;;;21.25;9.48;;;5.20;81.90;;;;;;5024448;28;20028;-62
2021/11/18 01:35:27;;;;;;;23.20;9.27;;;5.20;81.90;;;;;;5027782;28;20035;-62
2021/11/18 01:37:53;;;;;;;20.00;9.50;;;5.20;81.90;;;;;;5029925;28;20038;-62
2021/11/18 01:40:23;;;;;;;17.25;8.80;;;5.20;81.80;;;;;;5028037;28;20455;-62
2021/11/18 01:42:50;;;;;;;14.68;8.93;;;5.10;81.70;;;;;;5027785;28;20033;-62
2021/11/18 01:45:17;;;;;;;15.45;10.20;;;5.10;81.70;;;;;;5024153;28;20021;-62
2021/11/18 01:47:45;;;;;;;15.02;9.13;;;5.00;81.80;;;;;;5027643;28;20045;-62
2021/11/18 01:50:15;;;;;;;13.00;8.18;;;5.00;82.40;;;;;;5023530;28;20032;-62
2021/11/18 01:52:43;;;;;;;14.45;8.27;;;5.00;82.20;;;;;;5026293;28;20400;-62
2021/11/18 01:55:09;;;;;;;12.73;8.45;;;5.00;82.40;;;;;;5024038;28;20034;-62
2021/11/18 01:57:36;;;;;;;16.95;8.48;;;5.00;82.40;;;;;;5022321;28;20084;-62
2021/11/18 02:00:13;;;;;;;11.77;8.10;;;4.90;82.40;;;;;;5022952;28;20028;-62
2021/11/18 02:02:39;;;;;;;12.48;8.40;;;4.90;82.40;;;;;;5017431;28;20458;-62
2021/11/18 02:05:11;;;;;;;17.35;8.52;;;4.90;82.50;;;;;;5016233;28;20109;-62
2021/11/18 02:07:43;;;;;;;17.08;9.23;;;4.90;82.60;;;;;;5027853;28;20029;-62
2021/11/18 02:10:10;;;;;;;14.45;9.23;;;4.90;82.70;;;;;;5023059;28;20119;-62
2021/11/18 02:12:36;;;;;;;18.40;9.52;;;4.90;82.80;;;;;;5025143;28;20030;-62
2021/11/18 02:15:04;;;;;;;14.10;9.50;;;4.90;82.80;;;;;;5021633;28;20021;-62
2021/11/18 02:17:30;;;;;;;20.42;11.27;;;4.90;82.80;;;;;;5027160;28;20029;-62
2021/11/18 02:20:02;;;;;;;18.23;10.57;;;4.90;82.90;;;;;;5021146;28;20026;-62
2021/11/18 02:22:29;;;;;;;21.33;10.85;;;4.90;83.00;;;;;;5018712;28;20065;-62
2021/11/18 02:24:59;;;;;;;20.17;10.13;;;4.90;83.10;;;;;;5023204;28;20037;-62
2021/11/18 02:27:28;;;;;;;22.13;11.57;;;4.90;83.00;;;;;;5020413;28;20382;-62
2021/11/18 02:29:56;;;;;;;21.83;11.30;;;5.00;83.00;;;;;;5015578;28;20371;-62
2021/11/18 02:32:26;;;;;;;20.20;11.30;;;4.90;82.90;;;;;;5017523;28;20108;-62
2021/11/18 02:34:56;;;;;;;27.50;11.87;;;5.00;83.90;;;;;;5026177;28;20116;-62
2021/11/18 02:37:23;;;;;;;33.72;11.27;;;5.00;83.00;;;;;;5026406;28;20067;-62
2021/11/18 02:39:49;;;;;;;45.47;11.38;;;5.10;83.00;;;;;;5025899;28;20029;-62
2021/11/18 02:42:15;;;;;;;45.70;11.63;;;5.10;82.90;;;;;;5023917;28;20030;-62
2021/11/18 02:44:42;;;;;;;54.72;11.02;;;5.10;82.90;;;;;;5027334;28;20017;-62
2021/11/18 02:47:12;;;;;;;56.28;11.52;;;5.10;83.00;;;;;;5027569;28;20099;-62
2021/11/18 02:49:49;;;;;;;41.15;11.20;;;5.20;83.20;;;;;;5019163;28;20033;-62
2021/11/18 02:52:28;;;;;;;47.55;11.45;;;5.20;83.10;;;;;;5025726;28;20037;-62
2021/11/18 02:54:59;;;;;;;56.70;13.10;;;5.20;83.00;;;;;;5023801;28;20043;-62
2021/11/18 02:57:26;;;;;;;70.97;13.05;;;5.20;83.00;;;;;;5022272;28;20088;-62
2021/11/18 02:59:52;;;;;;;77.85;12.30;;;5.20;83.00;;;;;;5025734;28;20503;-62
2021/11/18 03:02:18;;;;;;;84.20;13.20;;;5.20;82.90;;;;;;5026104;28;20121;-62
2021/11/18 03:04:44;;;;;;;105.03;13.70;;;5.20;83.10;;;;;;5026687;28;20037;-62
2021/11/18 03:07:10;;;;;;;66.82;13.02;;;5.20;83.20;;;;;;5027730;28;20029;-62
2021/11/18 03:09:38;;;;;;;58.85;13.70;;;5.10;83.20;;;;;;5027742;28;20156;-62
2021/11/18 03:12:04;;;;;;;97.68;13.45;;;5.10;83.30;;;;;;5029472;28;20079;-62
2021/11/18 03:14:31;;;;;;;86.97;13.15;;;5.10;83.40;;;;;;5028407;28;20504;-62
2021/11/18 03:16:57;;;;;;;56.97;12.27;;;5.10;83.40;;;;;;5031912;28;20033;-62
2021/11/18 03:19:23;;;;;;;89.32;12.75;;;5.10;83.50;;;;;;5026839;28;20030;-62
2021/11/18 03:21:50;;;;;;;86.80;13.25;;;5.10;83.70;;;;;;5031061;28;20021;-62
2021/11/18 03:24:16;;;;;;;109.95;13.20;;;5.10;83.70;;;;;;5028225;28;20028;-62
2021/11/18 03:26:42;;;;;;;77.13;12.65;;;5.10;83.90;;;;;;5030458;28;20090;-62
2021/11/18 03:29:08;;;;;;;105.43;12.43;;;5.20;83.90;;;;;;5031054;28;20033;-62
2021/11/18 03:31:35;;;;;;;65.18;12.35;;;5.20;83.90;;;;;;5024896;28;20035;-62
2021/11/18 03:34:08;;;;;;;61.35;13.05;;;5.20;83.90;;;;;;5025419;28;20045;-62
2021/11/18 03:36:36;;;;;;;97.57;13.02;;;5.20;83.90;;;;;;5028545;28;20029;-62
2021/11/18 03:39:07;;;;;;;77.45;12.75;;;5.20;83.90;;;;;;5023057;28;20460;-62
2021/11/18 03:41:35;;;;;;;58.53;12.70;;;5.20;83.90;;;;;;5028689;28;20014;-62
2021/11/18 03:44:04;;;;;;;66.82;13.05;;;5.20;83.80;;;;;;5021001;28;20413;-62
2021/11/18 03:46:34;;;;;;;89.20;12.98;;;5.20;83.70;;;;;;5027871;28;20579;-62
2021/11/18 03:49:01;;;;;;;102.97;14.18;;;5.20;83.50;;;;;;5022542;28;20458;-62
2021/11/18 03:51:32;;;;;;;127.65;14.55;;;5.20;83.60;;;;;;5020470;28;20037;-62
2021/11/18 03:53:59;;;;;;;87.13;13.73;;;5.20;83.80;;;;;;5019061;28;20054;-62
2021/11/18 03:56:29;;;;;;;99.55;15.10;;;5.20;83.90;;;;;;5017259;28;20400;-62
2021/11/18 03:58:55;;;;;;;78.38;13.95;;;5.20;83.90;;;;;;5028828;28;20030;-62
2021/11/18 04:01:20;;;;;;;63.58;12.82;;;5.20;83.90;;;;;;5018961;28;20508;-62
2021/11/18 04:03:46;;;;;;;77.53;15.10;;;5.20;84.10;;;;;;5026581;28;20034;-62
2021/11/18 04:06:13;;;;;;;87.55;14.70;;;5.20;84.00;;;;;;5029330;28;20940;-62
2021/11/18 04:08:38;;;;;;;67.45;14.27;;;5.20;83.90;;;;;;5027825;28;20041;-62
2021/11/18 04:11:05;;;;;;;62.40;14.73;;;5.20;83.90;;;;;;5031189;28;20052;-62
2021/11/18 04:13:31;;;;;;;58.20;14.73;;;5.10;83.80;;;;;;5025335;28;20366;-62
2021/11/18 04:15:57;;;;;;;62.13;14.38;;;5.10;83.80;;;;;;5024100;28;20143;-62
2021/11/18 04:18:23;;;;;;;79.75;14.73;;;5.00;84.00;;;;;;5026511;28;20037;-62
2021/11/18 04:20:52;;;;;;;72.53;15.25;;;5.00;84.10;;;;;;5015616;28;20025;-62
2021/11/18 04:23:20;;;;;;;96.88;15.20;;;5.00;84.30;;;;;;5017297;28;20511;-62
2021/11/18 04:25:47;;;;;;;106.35;17.05;;;5.00;84.40;;;;;;5021093;28;20060;-62
2021/11/18 04:28:14;;;;;;;49.78;16.63;;;4.90;84.60;;;;;;5026647;28;20491;-62
2021/11/18 04:30:47;;;;;;;77.72;15.88;;;4.90;84.90;;;;;;5023312;28;20511;-62
2021/11/18 04:33:14;;;;;;;63.90;16.90;;;4.80;84.90;;;;;;5026933;28;20112;-62
2021/11/18 04:35:39;;;;;;;68.03;16.65;;;4.80;85.00;;;;;;5024013;28;20060;-62
2021/11/18 04:38:05;;;;;;;72.53;15.07;;;4.80;85.10;;;;;;5029431;28;20464;-62
2021/11/18 04:40:34;;;;;;;99.72;15.10;;;4.70;85.20;;;;;;5027392;28;20096;-62
2021/11/18 04:43:02;;;;;;;86.68;14.50;;;4.80;85.40;;;;;;5027437;28;20087;-62
2021/11/18 04:45:28;;;;;;;102.95;14.55;;;4.70;85.60;;;;;;5023305;28;20018;-62
2021/11/18 04:47:54;;;;;;;57.00;13.15;;;4.70;85.50;;;;;;5020902;28;20071;-62
2021/11/18 04:50:21;;;;;;;90.88;13.07;;;4.70;85.50;;;;;;5014751;28;20030;-62
2021/11/18 04:52:49;;;;;;;76.25;12.65;;;4.70;85.60;;;;;;5027221;28;20460;-62
2021/11/18 04:55:19;;;;;;;41.42;11.30;;;4.70;85.50;;;;;;5025177;28;20071;-62
2021/11/18 04:57:46;;;;;;;41.90;12.15;;;4.70;85.40;;;;;;5027345;28;20037;-62
2021/11/18 05:00:26;;;;;;;49.67;12.00;;;4.70;85.40;;;;;;5026310;28;20120;-62
2021/11/18 05:02:53;;;;;;;42.13;11.50;;;4.70;85.20;;;;;;5027687;28;20057;-62
2021/11/18 05:05:21;;;;;;;32.13;10.77;;;4.60;85.00;;;;;;5029699;28;20376;-62
2021/11/18 05:07:47;;;;;;;21.55;10.15;;;4.60;85.00;;;;;;5026816;28;20579;-62
2021/11/18 05:10:15;;;;;;;21.73;10.27;;;4.60;85.00;;;;;;5026010;28;20604;-62
2021/11/18 05:12:41;;;;;;;18.77;10.02;;;4.50;85.00;;;;;;5021753;28;20033;-62
2021/11/18 05:15:12;;;;;;;27.15;9.25;;;4.50;85.00;;;;;;5017049;28;20025;-62
2021/11/18 05:17:38;;;;;;;31.33;11.27;;;4.50;85.00;;;;;;5013186;28;20034;-62
2021/11/18 05:20:06;;;;;;;16.48;8.93;;;4.50;85.10;;;;;;5015069;28;20511;-63
2021/11/18 05:22:32;;;;;;;19.95;9.63;;;4.40;85.00;;;;;;5026693;28;20033;-62
2021/11/18 05:24:58;;;;;;;17.20;8.48;;;4.40;85.00;;;;;;5023266;28;20083;-62
2021/11/18 05:27:24;;;;;;;18.25;8.60;;;4.30;85.10;;;;;;5024336;28;20029;-62
2021/11/18 05:29:51;;;;;;;15.02;8.00;;;4.30;85.10;;;;;;5026436;28;20052;-62
2021/11/18 05:32:17;;;;;;;12.52;7.75;;;4.30;85.10;;;;;;5023604;28;20448;-63
2021/11/18 05:34:44;;;;;;;13.63;8.05;;;4.30;85.10;;;;;;5019713;28;20493;-63
2021/11/18 05:37:10;;;;;;;13.15;7.55;;;4.30;85.00;;;;;;5024326;28;20029;-63
2021/11/18 05:39:37;;;;;;;15.23;7.70;;;4.30;85.00;;;;;;5020341;28;20112;-63
2021/11/18 05:42:03;;;;;;;12.43;7.80;;;4.30;84.90;;;;;;5027646;28;20028;-62
2021/11/18 05:44:31;;;;;;;11.82;7.18;;;4.20;84.80;;;;;;5022345;28;20025;-62
2021/11/18 05:46:58;;;;;;;12.10;7.68;;;4.20;84.90;;;;;;5031815;28;20042;-62
2021/11/18 05:49:23;;;;;;;13.57;8.10;;;4.20;85.20;;;;;;5024696;28;20403;-63
2021/11/18 05:51:49;;;;;;;13.85;8.30;;;4.10;86.00;;;;;;5024459;28;20030;-63
2021/11/18 05:54:16;;;;;;;10.90;6.50;;;4.10;85.20;;;;;;5021763;28;20025;-63
2021/11/18 05:56:45;;;;;;;11.40;7.00;;;4.10;85.20;;;;;;5023249;28;20029;-63
2021/11/18 05:59:12;;;;;;;10.65;6.22;;;4.00;85.20;;;;;;5022647;28;20033;-62
2021/11/18 06:01:40;;;;;;;9.68;6.57;;;4.00;85.30;;;;;;5030931;28;20477;-62
2021/11/18 06:04:06;;;;;;;11.52;6.22;;;4.00;85.30;;;;;;5017867;28;20409;-62
2021/11/18 06:06:32;;;;;;;10.10;6.50;;;4.00;85.20;;;;;;5026458;28;20748;-63
2021/11/18 06:09:02;;;;;;;10.50;6.32;;;4.00;85.10;;;;;;5023403;28;20037;-64
2021/11/18 06:11:33;;;;;;;12.57;6.90;;;4.00;85.30;;;;;;5022410;28;20060;-63
2021/11/18 06:13:59;;;;;;;;;;;4.00;85.30;;;;;;5027367;28;20330;-64
2021/11/18 06:16:26;;;;;;;11.52;7.18;;;3.90;85.50;;;;;;5018981;28;20312;-64
2021/11/18 06:18:54;;;;;;;10.85;7.32;;;3.90;85.50;;;;;;5026441;28;20033;-64
2021/11/18 06:21:21;;;;;;;11.65;6.93;;;3.90;85.60;;;;;;5024507;28;20388;-63
2021/11/18 06:23:46;;;;;;;10.18;6.60;;;3.80;85.50;;;;;;5029177;28;20510;-63
2021/11/18 06:26:14;;;;;;;10.40;6.78;;;3.80;85.60;;;;;;5028564;28;20025;-63
2021/11/18 06:28:40;;;;;;;13.70;7.35;;;3.80;85.50;;;;;;5027260;28;20041;-64
2021/11/18 06:31:10;;;;;;;11.95;7.30;;;3.80;85.60;;;;;;5020933;28;20028;-63
2021/11/18 06:33:36;;;;;;;13.43;7.72;;;3.90;85.60;;;;;;5026105;28;20037;-63
2021/11/18 06:36:03;;;;;;;9.18;4.70;;;3.90;85.90;;;;;;5025294;28;20040;-64
2021/11/18 06:38:29;;;;;;;9.82;5.10;;;3.90;86.00;;;;;;5027404;28;20033;-64
2021/11/18 06:40:55;;;;;;;11.93;7.00;;;4.00;86.20;;;;;;5025952;28;20033;-63
2021/11/18 06:43:21;;;;;;;42.42;21.33;;;4.00;86.20;;;;;;5023832;28;20061;-64
2021/11/18 06:45:47;;;;;;;13.52;7.90;;;4.00;86.00;;;;;;5026514;28;20452;-63
2021/11/18 06:48:22;;;;;;;19.60;8.43;;;4.10;86.00;;;;;;5023610;28;20072;-63
2021/11/18 06:50:48;;;;;;;17.08;8.60;;;4.10;85.80;;;;;;5012483;28;20033;-63
2021/11/18 06:53:15;;;;;;;18.95;8.82;;;4.10;85.90;;;;;;5026897;28;20111;-63
2021/11/18 06:55:41;;;;;;;16.88;9.27;;;4.00;85.80;;;;;;5014729;28;20045;-63
2021/11/18 06:58:07;;;;;;;17.92;9.32;;;4.10;85.90;;;;;;5017638;28;20068;-63
2021/11/18 07:00:33;;;;;;;15.65;8.82;;;4.10;86.00;;;;;;5015635;28;20026;-63
2021/11/18 07:02:59;;;;;;;16.00;8.45;;;4.00;86.10;;;;;;5014945;28;20061;-63
2021/11/18 07:05:25;;;;;;;14.90;8.02;;;4.10;86.20;;;;;;5010777;28;20473;-63
2021/11/18 07:07:51;;;;;;;15.82;8.15;;;4.10;86.20;;;;;;5014765;28;20118;-63
2021/11/18 07:10:18;;;;;;;16.73;7.95;;;4.10;86.20;;;;;;5014850;28;20547;-63
2021/11/18 07:12:43;;;;;;;17.15;7.78;;;4.10;86.20;;;;;;5014947;28;20123;-63
2021/11/18 07:15:11;;;;;;;15.13;7.47;;;4.20;86.20;;;;;;5014489;28;20489;-63
2021/11/18 07:17:37;;;;;;;19.77;11.70;;;4.20;86.20;;;;;;5020215;28;20053;-63
2021/11/18 07:20:05;;;;;;;26.30;12.20;;;4.30;86.10;;;;;;5013337;28;20073;-63
2021/11/18 07:22:31;;;;;;;15.20;8.77;;;4.30;86.10;;;;;;5024849;28;20485;-63
2021/11/18 07:24:59;;;;;;;15.52;8.15;;;4.40;85.90;;;;;;5018060;28;20058;-63
2021/11/18 07:27:25;;;;;;;20.67;7.97;;;4.50;85.80;;;;;;5014293;28;20388;-63
2021/11/18 07:29:51;;;;;;;16.00;7.63;;;4.60;85.70;;;;;;5025912;28;20541;-63
2021/11/18 07:32:17;;;;;;;12.68;6.90;;;4.60;85.40;;;;;;5011581;28;20022;-63
2021/11/18 07:34:43;;;;;;;18.42;8.00;;;4.70;85.20;;;;;;5014185;28;20033;-63
2021/11/18 07:37:08;;;;;;;13.23;8.40;;;4.80;85.20;;;;;;5014242;28;20076;-63
2021/11/18 07:39:34;;;;;;;24.05;8.52;;;4.90;85.00;;;;;;5014521;28;20026;-63
2021/11/18 07:42:00;;;;;;;26.63;9.15;;;4.90;84.80;;;;;;5014470;28;20562;-63
2021/11/18 07:44:26;;;;;;;18.40;8.43;;;5.00;84.60;;;;;;5010270;28;20021;-63
2021/11/18 07:46:52;;;;;;;24.08;9.88;;;5.10;84.40;;;;;;5014341;28;20050;-63
2021/11/18 07:49:18;;;;;;;20.50;9.48;;;5.10;84.20;;;;;;5014446;28;20455;-63
2021/11/18 07:51:44;;;;;;;19.77;8.98;;;5.10;84.10;;;;;;5017601;28;20014;-63
2021/11/18 07:54:13;;;;;;;20.52;9.55;;;5.20;84.00;;;;;;5017831;28;20032;-63
2021/11/18 07:56:40;;;;;;;20.17;10.73;;;5.20;84.30;;;;;;5015611;28;20389;-63
2021/11/18 07:59:08;;;;;;;18.42;8.75;;;5.20;84.00;;;;;;5015659;28;20026;-63
2021/11/18 08:01:34;;;;;;;16.55;9.45;;;5.30;84.00;;;;;;5018338;28;20484;-63
2021/11/18 08:04:00;;;;;;;15.77;10.13;;;5.40;84.00;;;;;;5017692;28;20587;-63
2021/11/18 08:06:28;;;;;;;18.15;9.18;;;5.50;84.00;;;;;;5020003;28;20030;-63
2021/11/18 08:08:55;;;;;;;19.80;8.75;;;5.50;83.80;;;;;;5028925;28;20117;-63
2021/11/18 08:11:25;;;;;;;15.02;8.90;;;5.60;83.70;;;;;;5029899;28;20168;-63
2021/11/18 08:13:51;;;;;;;13.38;8.32;;;5.70;83.50;;;;;;5017652;28;20473;-63
2021/11/18 08:16:17;;;;;;;18.58;9.25;;;5.80;83.40;;;;;;5017846;28;20026;-63
2021/11/18 08:18:43;;;;;;;19.02;9.05;;;5.80;83.20;;;;;;5017587;28;20049;-63
2021/11/18 08:21:09;;;;;;;15.85;9.50;;;5.90;82.90;;;;;;5017257;28;20035;-63
2021/11/18 08:23:35;;;;;;;16.35;8.88;;;6.00;82.60;;;;;;5014204;28;20044;-63
2021/11/18 08:26:04;;;;;;;18.45;10.73;;;6.10;82.30;;;;;;5015779;28;20022;-63
2021/11/18 08:28:30;;;;;;;16.65;10.20;;;6.30;82.20;;;;;;5018414;28;20084;-72
2021/11/18 08:30:56;;;;;;;19.63;10.65;;;6.30;82.00;;;;;;5016224;28;20058;-73
2021/11/18 08:33:22;;;;;;;17.98;10.15;;;6.40;82.00;;;;;;5017879;28;20026;-72
2021/11/18 08:35:48;;;;;;;63.03;33.25;;;6.50;82.00;;;;;;5015193;28;20021;-72
2021/11/18 08:38:18;;;;;;;20.85;12.60;;;6.50;82.00;;;;;;5014454;28;20393;-72
2021/11/18 08:40:53;;;;;;;21.05;11.00;;;6.60;81.90;;;;;;5017121;28;20385;-72
2021/11/18 08:43:20;;;;;;;17.73;10.88;;;6.70;81.90;;;;;;5016328;28;20030;-73
2021/11/18 08:45:46;;;;;;;19.70;11.77;;;6.80;81.90;;;;;;5017403;28;20026;-72
2021/11/18 08:48:13;;;;;;;18.50;12.57;;;6.90;81.70;;;;;;5016749;28;20041;-73
2021/11/18 08:50:42;;;;;;;21.05;13.00;;;7.10;81.30;;;;;;5014117;28;20104;-73
2021/11/18 08:53:09;;;;;;;30.48;20.67;;;7.30;81.00;;;;;;5014390;28;20061;-72
2021/11/18 08:55:38;;;;;;;31.45;16.60;;;7.50;80.50;;;;;;5027076;28;20128;-72
2021/11/18 08:58:06;;;;;;;23.23;14.63;;;7.60;80.00;;;;;;5020450;28;20045;-72
2021/11/18 09:00:56;;;;;;;29.88;13.15;;;7.90;79.90;;;;;;5016703;28;20017;-73
2021/11/18 09:03:24;;;;;;;44.83;34.22;;;8.00;79.50;;;;;;5016959;28;20033;-72
2021/11/18 09:05:51;;;;;;;19.10;12.35;;;8.20;79.20;;;;;;5027918;28;20033;-73
2021/11/18 09:08:18;;;;;;;49.17;36.47;;;8.40;79.10;;;;;;5028459;28;20037;-73
2021/11/18 09:10:45;;;;;;;37.28;26.42;;;8.50;78.90;;;;;;5016687;28;20026;-72
2021/11/18 09:13:11;;;;;;;24.92;12.30;;;8.70;78.60;;;;;;5015691;28;20037;-73
2021/11/18 09:15:37;;;;;;;21.10;12.43;;;8.80;78.10;;;;;;5018790;28;20021;-73
2021/11/18 09:18:05;;;;;;;31.73;21.60;;;9.00;77.60;;;;;;5026227;28;20432;-72
2021/11/18 09:20:32;;;;;;;21.55;12.80;;;9.10;77.50;;;;;;5018237;28;20029;-73
2021/11/18 09:22:59;;;;;;;20.00;12.82;;;9.20;77.60;;;;;;5028029;28;20065;-73
2021/11/18 09:25:32;;;;;;;19.23;12.10;;;9.20;77.70;;;;;;5024944;28;20036;-72
2021/11/18 09:27:59;;;;;;;20.70;12.30;;;9.20;77.70;;;;;;5022231;28;20102;-73
2021/11/18 09:30:30;;;;;;;26.33;13.05;;;9.30;77.60;;;;;;5024020;28;20029;-73
2021/11/18 09:32:57;;;;;;;22.88;12.93;;;9.20;77.70;;;;;;5015023;28;20033;-73
2021/11/18 09:35:39;;;;;;;21.15;11.38;;;9.20;77.90;;;;;;5012283;28;20014;-73
2021/11/18 09:38:06;;;;;;;16.75;11.07;;;9.20;78.10;;;;;;5026810;28;20503;-73
2021/11/18 09:40:55;;;;;;;22.30;13.00;;;9.20;78.20;;;;;;5026205;28;20508;-73
2021/11/18 09:43:45;;;;;;;19.10;11.00;;;9.20;78.30;;;;;;5024514;28;20042;-73
2021/11/18 09:46:23;;;;;;;19.93;11.40;;;9.20;78.50;;;;;;5017559;28;20464;-73
2021/11/18 09:49:19;;;;;;;15.65;10.88;;;9.20;79.60;;;;;;5015462;28;20121;-73
2021/11/18 09:52:10;;;;;;;22.10;11.35;;;9.20;78.60;;;;;;5015606;28;20487;-73
2021/11/18 09:54:58;;;;;;;16.58;11.50;;;9.30;78.30;;;;;;5017975;28;20116;-73
2021/11/18 09:57:51;;;;;;;20.27;11.07;;;9.40;78.30;;;;;;5021438;28;20370;-72
2021/11/18 10:00:40;;;;;;;23.98;11.05;;;9.50;78.50;;;;;;5014923;28;20087;-72
2021/11/18 10:03:40;;;;;;;18.80;10.95;;;9.60;78.40;;;;;;5023950;28;20076;-72
2021/11/18 10:06:30;;;;;;;18.55;10.90;;;9.80;78.30;;;;;;5025996;28;20029;-72
2021/11/18 10:09:11;;;;;;;22.52;11.93;;;10.00;78.10;;;;;;5026432;28;20071;-73
2021/11/18 10:12:14;;;;;;;23.85;10.63;;;10.40;77.20;;;;;;5017065;28;20037;-73
2021/11/18 10:14:53;;;;;;;19.67;11.32;;;10.60;76.90;;;;;;5019816;28;20038;-73
2021/11/18 10:17:18;;;;;;;21.52;11.20;;;10.80;76.70;;;;;;5012493;28;20038;-73
2021/11/18 10:19:50;;;;;;;20.50;12.05;;;11.00;76.20;;;;;;5026175;28;20033;-73
2021/11/18 10:22:20;;;;;;;20.65;11.82;;;11.20;75.60;;;;;;5015823;28;20096;-73
2021/11/18 10:24:48;;;;;;;24.50;12.52;;;11.50;75.00;;;;;;5015322;28;20021;-73
2021/11/18 10:27:31;;;;;;;24.23;12.68;;;11.60;74.70;;;;;;5013983;28;20515;-73
2021/11/18 10:30:11;;;;;;;21.55;11.13;;;11.70;75.00;;;;;;5026368;28;20060;-73
2021/11/18 10:33:02;;;;;;;23.40;12.48;;;11.90;74.70;;;;;;5013164;28;20025;-73
2021/11/18 10:35:37;;;;;;;24.17;12.60;;;12.00;74.50;;;;;;5012112;28;20053;-73
2021/11/18 10:38:26;;;;;;;18.95;12.05;;;11.90;74.60;;;;;;5025997;28;20421;-72
2021/11/18 10:40:53;;;;;;;20.60;12.20;;;11.90;74.90;;;;;;5015102;28;20029;-72
2021/11/18 10:43:19;;;;;;;24.05;13.48;;;11.90;74.90;;;;;;5015100;28;20030;-73
2021/11/18 10:45:49;;;;;;;22.05;12.73;;;12.00;75.00;;;;;;5014062;28;20033;-73
2021/11/18 10:48:28;;;;;;;24.75;12.05;;;12.20;74.70;;;;;;5014090;28;20057;-73
2021/11/18 10:51:04;;;;;;;23.40;12.32;;;12.30;74.40;;;;;;5026197;28;20033;-73
2021/11/18 10:53:44;;;;;;;27.67;12.40;;;12.50;74.20;;;;;;5010359;28;20044;-73
2021/11/18 10:56:13;;;;;;;25.58;12.57;;;12.70;73.60;;;;;;5026034;28;20500;-73
2021/11/18 10:58:44;;;;;;;26.35;12.18;;;13.10;72.90;;;;;;5014161;28;20157;-73
2021/11/18 11:01:26;;;;;;;25.20;12.45;;;13.70;71.70;;;;;;5014302;28;20026;-73
2021/11/18 11:04:00;;;;;;;21.58;12.32;;;13.90;70.80;;;;;;5018836;28;20045;-73
2021/11/18 11:06:29;;;;;;;22.48;11.77;;;14.30;70.10;;;;;;5023824;28;20032;-73
2021/11/18 11:09:12;;;;;;;20.10;11.95;;;14.20;70.00;;;;;;5024421;28;20496;-73
2021/11/18 11:12:11;;;;;;;23.73;11.52;;;14.10;70.50;;;;;;5011801;28;20484;-73
2021/11/18 11:15:29;;;;;;;22.88;12.02;;;14.00;70.80;;;;;;5011487;28;20034;-74
2021/11/18 11:18:16;;;;;;;22.92;11.10;;;14.00;71.10;;;;;;5042891;28;20052;-73
2021/11/18 11:21:00;;;;;;;24.85;10.85;;;13.90;71.40;;;;;;5043565;28;20034;-73
2021/11/18 11:23:36;;;;;;;24.77;10.93;;;13.90;71.70;;;;;;5044934;28;20128;-72
2021/11/18 11:26:27;;;;;;;25.35;10.43;;;14.00;72.40;;;;;;5047954;28;20021;-72
2021/11/18 11:29:31;;;;;;;24.85;10.23;;;14.20;71.10;;;;;;5051535;28;20431;-73
2021/11/18 11:32:08;;;;;;;20.90;10.00;;;14.50;70.40;;;;;;5048933;28;20183;-73
2021/11/18 11:35:01;;;;;;;23.23;9.77;;;14.70;69.70;;;;;;5051152;28;20041;-73
2021/11/18 11:37:43;;;;;;;22.40;8.95;;;14.90;69.50;;;;;;5049227;28;20412;-73
2021/11/18 11:40:17;;;;;;;21.30;9.73;;;14.90;69.40;;;;;;5047606;28;20041;-73
2021/11/18 11:43:17;;;;;;;24.05;8.82;;;14.80;69.60;;;;;;5048528;28;20036;-72
2021/11/18 11:46:07;;;;;;;25.92;9.50;;;14.60;69.80;;;;;;5044287;28;20025;-73
2021/11/18 11:48:45;;;;;;;21.55;9.45;;;14.40;70.40;;;;;;5048405;28;20119;-73
2021/11/18 11:51:26;;;;;;;22.40;8.82;;;14.30;71.10;;;;;;5047091;28;20056;-73
2021/11/18 11:54:20;;;;;;;23.02;8.00;;;14.20;71.30;;;;;;5035816;28;20033;-73
2021/11/18 11:56:52;;;;;;;22.05;7.50;;;14.10;71.30;;;;;;5016001;28;20022;-72
2021/11/18 11:59:37;;;;;;;21.20;7.63;;;14.00;71.30;;;;;;5014078;28;20152;-74
2021/11/18 12:02:07;;;;;;;22.13;8.48;;;13.90;71.60;;;;;;5029125;28;20381;-73
2021/11/18 12:04:48;;;;;;;24.73;8.43;;;13.80;71.90;;;;;;5027701;28;20457;-74
2021/11/18 12:07:35;;;;;;;22.63;8.65;;;13.70;72.20;;;;;;5019086;28;20481;-73
2021/11/18 12:10:31;;;;;;;26.67;8.98;;;13.70;72.60;;;;;;5016821;28;20037;-73
2021/11/18 12:13:09;;;;;;;21.75;8.10;;;13.70;72.80;;;;;;5024515;28;20389;-73
2021/11/18 12:15:46;;;;;;;22.65;7.32;;;13.70;72.70;;;;;;5025288;28;20058;-73
2021/11/18 12:18:39;;;;;;;21.33;7.07;;;13.70;72.10;;;;;;5025190;28;20037;-73
2021/11/18 12:21:05;;;;;;;21.98;7.22;;;13.70;72.10;;;;;;5027845;28;20033;-73
2021/11/18 12:24:02;;;;;;;22.95;7.80;;;13.70;72.00;;;;;;5013626;28;20109;-73
2021/11/18 12:26:56;;;;;;;21.25;7.60;;;13.70;72.10;;;;;;5021962;28;20057;-73
2021/11/18 12:29:31;;;;;;;20.70;7.68;;;13.70;72.10;;;;;;5024554;28;20512;-73
2021/11/18 12:32:13;;;;;;;21.05;8.02;;;13.80;72.00;;;;;;5028853;28;20082;-73
2021/11/18 12:34:59;;;;;;;21.92;7.95;;;13.80;72.00;;;;;;5017332;28;20037;-73
2021/11/18 12:37:57;;;;;;;19.95;7.55;;;13.90;72.00;;;;;;5025823;28;20037;-72
2021/11/18 12:40:41;;;;;;;19.30;7.75;;;13.90;71.90;;;;;;5016790;28;20080;-73
2021/11/18 12:43:13;;;;;;;24.25;7.45;;;14.00;71.70;;;;;;5022213;28;20041;-73
2021/11/18 12:45:58;;;;;;;22.67;7.10;;;14.00;71.70;;;;;;5024887;28;20480;-73
2021/11/18 12:48:53;;;;;;;19.55;6.70;;;14.00;71.60;;;;;;5024782;28;20081;-73
2021/11/18 12:51:49;;;;;;;24.83;6.60;;;14.20;71.30;;;;;;5014815;28;20029;-73
2021/11/18 12:55:11;;;;;;;20.73;6.28;;;14.30;70.70;;;;;;5012135;28;20034;-73
2021/11/18 12:57:52;;;;;;;18.35;5.93;;;14.40;70.50;;;;;;4941823;29;20044;-73
2021/11/18 13:00:17;;;;;;;22.75;6.25;;;14.40;70.30;;;;;;4934619;29;20122;-73
2021/11/18 13:03:03;;;;;;;24.42;6.90;;;14.40;70.00;;;;;;4933386;29;20204;-73